KBGM

Greater Binghamton / Edwin A Link Field Airport

Binghamton, New York, USA
METAR KBGM 172353Z 30010KT 10SM FEW041 SCT049 BKN060 02/01 A3002 RMK AO2 PK WND 30026/2301 RAE17B29E40 SLP178 P0001 60005 T00220006 10083 20022 51027
Observed Flight Rules
Oct-17 @ 23:53 UTC (52 minutes ago) Visual Flight Rules
Wind Visibility Clouds
300° at 10 knots 10 miles
  • Few at 4,100' AGL
  • Scattered at 4,900' AGL
  • Broken at 6,000' AGL
Temperatures Readings Precipitation
Current 2°C / 36°F
Dewpoint 1°C / 34°F
Humidity 93%
Altimeter 30.02" Hg
Pressure 1017.8 hPa
Elevation 490
Current Rain 0.01
METAR KBGM 172353Z 30010KT 10SM FEW041 SCT049 BKN060 02/01 A3002 RMK AO2 PK WND 30026/2301 RAE17B29E40 SLP178 P0001 60005 T00220006 10083 20022 51027
Observed Flight Rules
Oct-17 @ 23:53 UTC
(52 minutes ago)
VFR
Wind Visibility
300° at 10 knots 10 miles
Clouds
  • Few at 4,100' AGL
  • Scattered at 4,900' AGL
  • Broken at 6,000' AGL
Temperature Dewpoint
2°C / 36°F 1°C / 34°F
Humidity Altimeter Pressure
93% 30.02" Hg 1017.8 hPa
Current Rain
0.01